Time;durP1;ratioP1;P1;durP2;ratioP2;P2;SDS_P1;SDS_P2;PMS_P1;PMS_P2;Temp;Humidity;BMP_temperature;BMP_pressure;BME280_temperature;BME280_humidity;BME280_pressure;Samples;Min_cycle;Max_cycle;Signal;HPM_P1;HPM_P2
2021/01/10 03:45:12;;;;;;;46.45;26.20;;;3.40;73.00;;;;;;5847124;24;20836;31
2021/01/10 03:47:38;;;;;;;48.75;26.02;;;3.20;73.60;;;;;;4803602;29;20158;-73
2021/01/10 03:50:06;;;;;;;48.20;27.15;;;3.40;73.50;;;;;;4814593;29;20053;-73
2021/01/10 03:52:32;;;;;;;56.65;27.33;;;3.40;73.20;;;;;;4815329;29;20058;-72
2021/01/10 03:54:58;;;;;;;45.40;24.52;;;3.50;73.00;;;;;;4814656;29;20043;-73
2021/01/10 03:57:23;;;;;;;45.95;23.95;;;3.40;72.40;;;;;;4814447;29;20093;-73
2021/01/10 03:59:49;;;;;;;45.88;24.85;;;3.40;72.50;;;;;;4815647;29;20030;-73
2021/01/10 04:02:15;;;;;;;47.83;25.08;;;3.30;72.50;;;;;;4826985;29;20035;-73
2021/01/10 04:04:40;;;;;;;46.38;24.58;;;3.40;72.60;;;;;;4797521;29;20092;-73
2021/01/10 04:07:07;;;;;;;48.60;26.25;;;3.30;72.50;;;;;;4797098;29;20027;-73
2021/01/10 04:09:34;;;;;;;49.50;26.20;;;3.20;73.40;;;;;;4826432;29;20106;-73
2021/01/10 04:11:59;;;;;;;52.10;29.17;;;3.20;72.80;;;;;;4826599;29;20035;-73
2021/01/10 04:14:25;;;;;;;47.53;26.70;;;3.20;72.90;;;;;;4797512;29;20194;-73
2021/01/10 04:16:53;;;;;;;58.42;30.90;;;3.30;72.90;;;;;;4803926;29;20329;-73
2021/01/10 04:19:19;;;;;;;63.78;33.08;;;3.30;72.80;;;;;;4829663;29;20348;-73
2021/01/10 04:21:45;;;;;;;65.78;33.83;;;3.20;73.20;;;;;;4815417;29;20038;-73
2021/01/10 04:24:10;;;;;;;65.72;35.33;;;3.20;73.50;;;;;;4833105;29;20215;-73
2021/01/10 04:26:38;;;;;;;66.57;34.08;;;3.20;73.60;;;;;;4818934;29;20602;-73
2021/01/10 04:29:04;;;;;;;69.85;36.53;;;3.10;74.10;;;;;;4819018;29;20034;-73
2021/01/10 04:31:30;;;;;;;74.63;37.38;;;3.10;74.30;;;;;;4818901;29;20096;-73
2021/01/10 04:33:56;;;;;;;67.65;35.55;;;3.10;74.20;;;;;;4817695;29;20022;-73
2021/01/10 04:36:21;;;;;;;77.47;38.35;;;3.20;74.10;;;;;;4818926;29;20376;-73
2021/01/10 04:38:47;;;;;;;55.80;29.23;;;3.20;73.90;;;;;;4832404;29;20047;-72
2021/01/10 04:41:15;;;;;;;67.95;33.78;;;3.20;73.90;;;;;;4818822;29;20023;-72
2021/01/10 04:43:42;;;;;;;68.63;33.67;;;3.10;73.90;;;;;;4832666;29;20117;-72
2021/01/10 04:46:09;;;;;;;65.05;34.55;;;3.10;73.80;;;;;;4832344;29;20038;-73
2021/01/10 04:48:35;;;;;;;;;;;3.10;74.00;;;;;;4818989;29;20098;-72
2021/01/10 04:51:01;;;;;;;69.07;32.05;;;3.20;74.00;;;;;;4832741;29;19944;-73
2021/01/10 04:53:30;;;;;;;67.72;32.75;;;3.20;73.80;;;;;;4802460;29;20038;-73
2021/01/10 04:55:58;;;;;;;74.70;36.13;;;3.10;73.80;;;;;;4832399;29;20031;-72
2021/01/10 04:58:28;;;;;;;65.90;33.65;;;3.10;74.00;;;;;;4818441;29;20031;-73
2021/01/10 05:00:55;;;;;;;61.50;31.73;;;3.10;73.90;;;;;;4824026;29;20035;-72
2021/01/10 05:03:24;;;;;;;63.92;32.60;;;3.10;73.90;;;;;;4823085;29;20034;-73
2021/01/10 05:05:50;;;;;;;70.05;34.35;;;3.20;73.80;;;;;;4817273;29;20147;-73
2021/01/10 05:08:16;;;;;;;59.90;31.80;;;3.20;73.70;;;;;;4827442;29;20042;-73
2021/01/10 05:10:42;;;;;;;67.22;34.15;;;3.20;73.40;;;;;;4826177;29;20026;-73
2021/01/10 05:13:07;;;;;;;69.68;33.88;;;3.20;73.30;;;;;;4809445;29;20046;-73
2021/01/10 05:15:36;;;;;;;63.00;31.25;;;3.20;73.20;;;;;;4806990;29;20023;-73
2021/01/10 05:18:02;;;;;;;62.35;31.63;;;3.10;73.40;;;;;;4809464;29;20023;-73
2021/01/10 05:20:31;;;;;;;55.83;29.75;;;3.10;73.50;;;;;;4806972;29;20353;-73
2021/01/10 05:23:00;;;;;;;58.00;30.58;;;3.10;73.50;;;;;;4843981;29;20038;-73
2021/01/10 05:25:29;;;;;;;58.53;30.35;;;3.00;73.50;;;;;;4821929;29;20062;-72
2021/01/10 05:27:56;;;;;;;53.78;28.77;;;3.00;73.60;;;;;;4822962;29;20318;-73
2021/01/10 05:30:26;;;;;;;;;;;3.10;73.50;;;;;;4824854;29;20199;-73
2021/01/10 05:33:03;;;;;;;55.33;27.70;;;3.10;73.50;;;;;;4806319;29;19944;-73
2021/01/10 05:35:46;;;;;;;52.03;27.02;;;3.10;73.20;;;;;;4820439;29;20214;-73
2021/01/10 05:38:30;;;;;;;51.47;26.70;;;3.10;73.30;;;;;;4823200;29;20288;-73
2021/01/10 05:40:59;;;;;;;47.10;25.13;;;3.00;73.30;;;;;;4818258;29;20031;-73
2021/01/10 05:43:25;;;;;;;55.55;27.10;;;3.00;73.10;;;;;;4813470;29;20039;-73
2021/01/10 05:45:51;;;;;;;47.00;24.30;;;3.00;73.10;;;;;;4815004;29;20043;-73
2021/01/10 05:48:18;;;;;;;48.10;25.88;;;3.00;73.20;;;;;;4834300;29;20058;-73
2021/01/10 05:50:46;;;;;;;45.28;22.65;;;2.90;73.00;;;;;;4805162;29;20046;-73
2021/01/10 05:53:24;;;;;;;44.60;24.20;;;2.90;73.00;;;;;;4825991;29;20035;-73
2021/01/10 05:56:10;;;;;;;43.60;23.73;;;2.90;72.90;;;;;;4808430;29;20034;-73
2021/01/10 05:58:36;;;;;;;52.97;22.77;;;2.90;72.80;;;;;;4811366;29;20392;-73
2021/01/10 06:01:13;;;;;;;52.58;23.33;;;3.00;72.80;;;;;;4825508;29;20058;-72
2021/01/10 06:03:39;;;;;;;;;;;2.90;72.60;;;;;;4847002;29;20030;-72
2021/01/10 06:06:06;;;;;;;41.78;21.55;;;3.00;72.60;;;;;;4817292;29;19921;-73
2021/01/10 06:08:37;;;;;;;46.42;21.95;;;3.00;72.40;;;;;;4831059;29;20090;-73
2021/01/10 06:11:18;;;;;;;45.53;23.35;;;3.00;72.10;;;;;;4807354;29;20054;-72
2021/01/10 06:13:59;;;;;;;40.58;21.75;;;2.90;72.10;;;;;;4806290;29;20129;-73
2021/01/10 06:16:35;;;;;;;43.72;22.27;;;2.90;71.90;;;;;;4811808;29;20035;-73
2021/01/10 06:19:02;;;;;;;42.72;22.02;;;2.90;71.80;;;;;;4801033;29;20306;-73
2021/01/10 06:21:30;;;;;;;44.58;23.05;;;2.90;72.00;;;;;;4806943;29;20031;-73
2021/01/10 06:24:00;;;;;;;42.55;20.90;;;2.90;71.90;;;;;;4816964;29;20094;-72
2021/01/10 06:26:27;;;;;;;39.95;21.02;;;2.90;71.90;;;;;;4814179;29;20031;-73
2021/01/10 06:28:57;;;;;;;39.88;20.63;;;2.90;71.90;;;;;;4820710;29;20037;-73
2021/01/10 06:31:29;;;;;;;39.10;20.80;;;2.90;71.70;;;;;;4845948;29;20031;-73
2021/01/10 06:34:09;;;;;;;39.08;20.58;;;2.80;71.60;;;;;;4811175;29;20106;-72
2021/01/10 06:36:40;;;;;;;41.22;20.90;;;2.80;71.70;;;;;;4821584;29;20043;-73
2021/01/10 06:39:18;;;;;;;41.10;20.80;;;2.70;72.00;;;;;;4820504;29;20322;-72
2021/01/10 06:41:52;;;;;;;35.80;20.88;;;2.70;72.00;;;;;;4808932;29;20326;-73
2021/01/10 06:44:20;;;;;;;48.28;21.95;;;2.70;72.00;;;;;;4805408;29;20027;-72
2021/01/10 06:46:54;;;;;;;43.55;22.50;;;2.80;71.80;;;;;;4822794;29;20055;-73
2021/01/10 06:49:23;;;;;;;40.35;21.60;;;2.70;71.90;;;;;;4814460;29;20031;-72
2021/01/10 06:51:53;;;;;;;41.30;20.92;;;2.70;72.20;;;;;;4824556;29;20093;-73
2021/01/10 06:54:19;;;;;;;44.00;23.23;;;2.70;72.20;;;;;;4813139;29;20248;-73
2021/01/10 06:56:49;;;;;;;43.83;21.85;;;2.70;72.20;;;;;;4806435;29;20023;-72
2021/01/10 06:59:18;;;;;;;42.80;22.80;;;2.70;72.30;;;;;;4807946;29;20035;-72
2021/01/10 07:01:50;;;;;;;43.20;22.17;;;2.80;72.10;;;;;;4823513;29;20033;-73
2021/01/10 07:04:23;;;;;;;42.42;22.23;;;2.80;71.90;;;;;;4813120;29;20031;-73
2021/01/10 07:06:50;;;;;;;43.53;22.40;;;2.70;71.90;;;;;;4830639;29;20094;-73
2021/01/10 07:09:17;;;;;;;42.28;22.65;;;2.80;72.00;;;;;;4829528;29;20030;-73
2021/01/10 07:11:45;;;;;;;41.15;22.17;;;2.70;71.90;;;;;;4830332;29;20033;-72
2021/01/10 07:14:13;;;;;;;42.22;22.38;;;2.70;72.20;;;;;;4814445;29;20022;-73
2021/01/10 07:16:41;;;;;;;41.10;22.05;;;2.60;72.50;;;;;;4815438;29;20141;-73
2021/01/10 07:19:08;;;;;;;45.45;22.52;;;2.70;72.70;;;;;;4814854;29;20088;-72
2021/01/10 07:21:35;;;;;;;;;;;2.60;72.80;;;;;;4816215;29;20031;-72
2021/01/10 07:24:10;;;;;;;;;;;2.70;72.90;;;;;;4815853;29;19909;-72
2021/01/10 07:26:43;;;;;;;46.55;23.05;;;2.80;72.60;;;;;;4816062;29;19913;-72
2021/01/10 07:29:31;;;;;;;46.80;23.55;;;2.80;72.50;;;;;;4829941;29;20041;-73
2021/01/10 07:32:06;;;;;;;43.42;22.70;;;2.90;72.60;;;;;;4812295;29;20035;-72
2021/01/10 07:34:37;;;;;;;45.10;24.00;;;2.80;72.50;;;;;;4810566;29;20027;-73
2021/01/10 07:37:05;;;;;;;51.22;24.25;;;2.80;73.00;;;;;;4819067;29;20326;-72
2021/01/10 07:39:38;;;;;;;45.83;25.00;;;2.80;73.00;;;;;;4821546;29;20246;-73
2021/01/10 07:42:12;;;;;;;48.67;24.60;;;2.90;72.90;;;;;;4811585;29;20035;-72
2021/01/10 07:44:48;;;;;;;48.63;24.58;;;2.90;72.50;;;;;;4806996;29;20333;-73
2021/01/10 07:47:14;;;;;;;47.67;24.73;;;3.00;72.70;;;;;;4808886;29;20050;-73
2021/01/10 07:49:49;;;;;;;54.20;25.27;;;3.10;72.60;;;;;;4821570;29;20469;-72
2021/01/10 07:52:16;;;;;;;53.88;26.02;;;3.10;72.40;;;;;;4814568;29;20367;-73
2021/01/10 07:54:50;;;;;;;49.58;24.70;;;3.10;72.20;;;;;;4802320;29;20027;-73
2021/01/10 07:57:30;;;;;;;49.03;25.30;;;3.20;72.40;;;;;;4802280;29;20062;-73
2021/01/10 08:00:15;;;;;;;53.15;24.40;;;3.10;72.10;;;;;;4807321;29;20042;-73
2021/01/10 08:03:05;;;;;;;48.08;24.13;;;3.20;72.00;;;;;;4818714;29;20055;-73
2021/01/10 08:05:41;;;;;;;47.22;24.67;;;3.20;71.90;;;;;;4788584;30;20092;-73
2021/01/10 08:08:16;;;;;;;45.10;23.15;;;3.20;71.70;;;;;;4769218;30;20039;-73
2021/01/10 08:10:49;;;;;;;43.80;23.02;;;3.20;71.60;;;;;;4787046;30;20047;-73
2021/01/10 08:13:41;;;;;;;44.72;24.58;;;3.10;71.30;;;;;;4784960;30;20035;-73
2021/01/10 08:16:10;;;;;;;48.03;23.27;;;3.10;71.40;;;;;;4785101;30;20047;-73
2021/01/10 08:18:46;;;;;;;50.35;23.27;;;3.10;71.60;;;;;;4784308;30;20070;-73
2021/01/10 08:21:14;;;;;;;41.08;22.02;;;3.20;71.60;;;;;;4785442;30;20058;-73
2021/01/10 08:23:42;;;;;;;41.70;21.70;;;3.30;71.50;;;;;;4786201;30;20057;-73
2021/01/10 08:26:11;;;;;;;39.53;21.60;;;3.30;70.70;;;;;;4766596;30;20036;-73
2021/01/10 08:28:52;;;;;;;42.08;21.30;;;3.40;70.80;;;;;;4769987;30;20035;-73
2021/01/10 08:31:21;;;;;;;42.97;23.20;;;3.30;71.00;;;;;;4784690;30;20097;-73
2021/01/10 08:33:48;;;;;;;45.17;23.25;;;3.40;71.00;;;;;;4786869;30;20097;-74
2021/01/10 08:36:16;;;;;;;42.42;21.63;;;3.40;71.10;;;;;;4779541;30;20227;-73
2021/01/10 08:38:52;;;;;;;41.97;23.40;;;3.50;70.90;;;;;;4787786;30;20074;-73
2021/01/10 08:41:23;;;;;;;43.17;23.30;;;3.60;70.60;;;;;;4784400;30;20081;-74
2021/01/10 08:43:50;;;;;;;44.88;22.52;;;3.60;70.40;;;;;;4819632;29;20031;-73
2021/01/10 08:46:16;;;;;;;38.63;21.55;;;3.70;70.20;;;;;;4809732;29;20082;-73
2021/01/10 08:48:42;;;;;;;39.88;20.88;;;3.70;70.00;;;;;;4818624;29;20222;-74
2021/01/10 08:51:09;;;;;;;37.37;19.57;;;3.70;69.90;;;;;;4814734;29;20333;-73
2021/01/10 08:53:42;;;;;;;36.78;19.83;;;3.70;69.00;;;;;;4814906;29;20062;-73
2021/01/10 08:56:14;;;;;;;37.53;19.35;;;3.70;69.30;;;;;;4815051;29;20315;-73
2021/01/10 08:58:43;;;;;;;40.35;20.98;;;3.80;69.40;;;;;;4814773;29;20022;-73
2021/01/10 09:01:35;;;;;;;40.08;20.05;;;3.80;68.90;;;;;;4822669;29;20033;-73
2021/01/10 09:04:09;;;;;;;36.90;20.25;;;3.80;69.00;;;;;;4813056;29;20039;-73
2021/01/10 09:06:56;;;;;;;40.15;19.73;;;3.80;68.40;;;;;;4813327;29;20128;-73
2021/01/10 09:09:31;;;;;;;58.50;28.58;;;3.80;68.90;;;;;;4799508;29;20091;-74
2021/01/10 09:12:08;;;;;;;40.13;21.83;;;3.80;68.20;;;;;;4800328;29;20035;-73
2021/01/10 09:14:52;;;;;;;38.70;21.48;;;3.80;68.40;;;;;;4801366;29;20057;-73
2021/01/10 09:17:25;;;;;;;38.95;21.75;;;3.90;68.50;;;;;;4789427;30;20358;-73
2021/01/10 09:19:59;;;;;;;40.35;21.23;;;3.90;68.00;;;;;;4790231;29;20039;-74
2021/01/10 09:23:13;;;;;;;39.53;21.30;;;3.90;68.30;;;;;;4791570;30;20052;-74
2021/01/10 09:25:39;;;;;;;39.58;18.48;;;3.90;68.40;;;;;;4810757;29;20097;-73
2021/01/10 09:28:13;;;;;;;32.40;19.00;;;3.90;68.30;;;;;;4809704;29;20069;-73
2021/01/10 09:30:43;;;;;;;40.90;20.05;;;4.00;68.00;;;;;;4807928;29;20035;-73
2021/01/10 09:33:12;;;;;;;38.75;20.02;;;4.00;67.80;;;;;;4794642;29;20046;-73
2021/01/10 09:36:16;;;;;;;33.03;19.13;;;3.90;67.70;;;;;;4814684;29;20163;-74
2021/01/10 09:38:54;;;;;;;38.40;20.00;;;3.90;68.20;;;;;;4787903;29;20045;-73
2021/01/10 09:41:20;;;;;;;34.17;19.52;;;4.10;68.30;;;;;;4823698;29;20046;-74
2021/01/10 09:43:54;;;;;;;40.60;19.52;;;4.10;68.20;;;;;;4834640;29;20034;-74
2021/01/10 09:46:38;;;;;;;35.97;19.33;;;4.10;67.40;;;;;;4844946;29;20372;-73
2021/01/10 09:49:22;;;;;;;35.35;19.02;;;4.00;67.30;;;;;;4830086;29;20047;-74
2021/01/10 09:51:47;;;;;;;39.05;20.52;;;4.20;67.80;;;;;;4829010;29;20027;-74
2021/01/10 09:54:31;;;;;;;36.95;20.33;;;4.30;67.60;;;;;;4817138;29;20068;-75
2021/01/10 09:57:09;;;;;;;35.45;19.88;;;4.30;67.90;;;;;;4824918;29;20023;-72
2021/01/10 09:59:46;;;;;;;38.55;20.27;;;4.40;67.90;;;;;;4816606;29;20337;-74
2021/01/10 10:02:15;;;;;;;39.38;20.42;;;4.40;66.70;;;;;;4813138;29;20030;-74
2021/01/10 10:04:45;;;;;;;42.90;20.48;;;4.50;67.50;;;;;;4808364;29;20271;-73
2021/01/10 10:07:11;;;;;;;39.10;20.58;;;4.60;67.30;;;;;;4823083;29;20140;-73
2021/01/10 10:09:51;;;;;;;42.95;20.40;;;4.60;67.10;;;;;;4824971;29;20046;-74
2021/01/10 10:12:19;;;;;;;37.45;19.88;;;4.70;66.50;;;;;;4830745;29;20035;-74
2021/01/10 10:14:56;;;;;;;39.70;20.35;;;4.70;66.10;;;;;;4816039;29;20035;-73
2021/01/10 10:17:27;;;;;;;35.40;19.08;;;4.80;66.50;;;;;;4827183;29;20055;-74
2021/01/10 10:19:53;;;;;;;35.67;20.40;;;4.80;66.20;;;;;;4826121;29;20043;-74
2021/01/10 10:22:22;;;;;;;39.05;20.98;;;5.00;66.20;;;;;;4814849;29;20031;-74
2021/01/10 10:24:48;;;;;;;36.85;20.05;;;5.10;66.00;;;;;;4842081;29;20065;-74
2021/01/10 10:27:14;;;;;;;38.55;21.75;;;5.20;65.50;;;;;;4833752;29;20035;-75
2021/01/10 10:29:39;;;;;;;41.50;20.52;;;5.30;65.50;;;;;;4798149;29;20031;-75
2021/01/10 10:32:05;;;;;;;36.60;20.35;;;5.40;65.10;;;;;;4816708;29;20027;-74
2021/01/10 10:34:31;;;;;;;42.13;22.17;;;5.50;64.90;;;;;;4812093;29;20035;-75
2021/01/10 10:37:00;;;;;;;42.65;21.77;;;5.60;64.90;;;;;;4821732;29;20046;-75
2021/01/10 10:39:26;;;;;;;40.97;21.98;;;5.70;64.00;;;;;;4830045;29;20034;-74
2021/01/10 10:41:52;;;;;;;40.20;21.67;;;5.70;63.60;;;;;;4831485;29;20082;-74
2021/01/10 10:44:18;;;;;;;43.67;22.92;;;5.70;63.90;;;;;;4815063;29;20306;-74
2021/01/10 10:46:44;;;;;;;39.13;21.02;;;5.80;63.70;;;;;;4826002;29;20042;-74
2021/01/10 10:49:10;;;;;;;37.57;20.70;;;5.80;63.30;;;;;;4834312;29;20105;-74
2021/01/10 10:51:36;;;;;;;37.22;20.65;;;5.90;63.60;;;;;;4827180;29;20283;-73
2021/01/10 10:54:01;;;;;;;40.10;21.10;;;6.00;63.30;;;;;;4830126;29;20318;-74
2021/01/10 10:56:41;;;;;;;44.80;22.50;;;6.00;63.40;;;;;;4814767;29;20030;-74
2021/01/10 10:59:07;;;;;;;42.75;22.83;;;6.00;62.50;;;;;;4816019;29;20302;-74
2021/01/10 11:01:41;;;;;;;36.67;21.10;;;6.10;62.30;;;;;;4832171;29;20039;-73
2021/01/10 11:04:20;;;;;;;40.72;20.92;;;6.00;62.30;;;;;;4830875;29;20030;-74
2021/01/10 11:06:49;;;;;;;45.72;22.90;;;6.00;62.30;;;;;;4831576;29;20422;-75
2021/01/10 11:09:15;;;;;;;40.55;22.05;;;6.10;62.50;;;;;;4827809;29;20066;-74
2021/01/10 11:11:46;;;;;;;44.33;23.65;;;6.20;62.80;;;;;;4833761;29;20030;-74
2021/01/10 11:14:17;;;;;;;38.92;21.58;;;6.20;62.00;;;;;;4832076;29;20111;-75
2021/01/10 11:16:43;;;;;;;38.53;22.20;;;6.10;61.60;;;;;;4832709;29;20046;-75
2021/01/10 11:19:10;;;;;;;40.15;23.13;;;6.20;62.30;;;;;;4827141;29;20353;-75
2021/01/10 11:21:41;;;;;;;43.05;24.17;;;6.30;62.60;;;;;;4818008;29;20042;-74
2021/01/10 11:24:08;;;;;;;48.88;25.15;;;6.30;62.10;;;;;;4817922;29;20038;-74
2021/01/10 11:26:35;;;;;;;;;;;6.40;62.20;;;;;;4832213;29;20042;-74
2021/01/10 11:29:04;;;;;;;47.55;23.40;;;6.50;62.00;;;;;;4831784;29;19964;-76
2021/01/10 11:31:32;;;;;;;47.45;24.67;;;6.50;61.40;;;;;;4809557;29;20057;-75
2021/01/10 11:33:59;;;;;;;48.35;25.20;;;6.40;60.90;;;;;;4798342;29;20031;-74
2021/01/10 11:36:25;;;;;;;42.83;23.92;;;6.30;61.20;;;;;;4820739;29;20083;-74
2021/01/10 11:38:52;;;;;;;41.28;24.75;;;6.30;61.30;;;;;;4813616;29;20221;-75
2021/01/10 11:41:19;;;;;;;42.10;24.73;;;6.20;61.40;;;;;;4814007;29;20110;-75
2021/01/10 11:43:46;;;;;;;38.45;23.23;;;6.30;61.70;;;;;;4828434;29;20031;-75
2021/01/10 11:46:12;;;;;;;44.13;24.23;;;6.20;61.40;;;;;;4829197;29;20043;-75
2021/01/10 11:48:41;;;;;;;44.67;24.05;;;6.20;62.80;;;;;;4829959;29;20244;-74
2021/01/10 11:51:08;;;;;;;41.85;24.23;;;6.30;61.80;;;;;;4828368;29;20049;-75
2021/01/10 11:53:34;;;;;;;42.17;24.10;;;6.40;61.60;;;;;;4800792;29;20031;-75
2021/01/10 11:56:00;;;;;;;45.35;23.77;;;6.20;61.20;;;;;;4799172;29;20274;-75
2021/01/10 11:58:26;;;;;;;45.30;23.73;;;6.10;61.40;;;;;;4842017;29;20080;-75
2021/01/10 12:00:53;;;;;;;44.05;24.05;;;6.20;61.80;;;;;;4831324;29;20317;-75
2021/01/10 12:03:20;;;;;;;50.33;25.63;;;6.40;61.20;;;;;;4829291;29;20084;-75
2021/01/10 12:05:46;;;;;;;47.28;23.83;;;6.40;61.10;;;;;;4829077;29;20325;-74
2021/01/10 12:08:12;;;;;;;48.38;25.80;;;6.40;61.20;;;;;;4829329;29;20043;-75
2021/01/10 12:10:38;;;;;;;44.38;25.73;;;6.40;61.00;;;;;;4809721;29;20047;-75
2021/01/10 12:13:04;;;;;;;44.63;24.27;;;6.40;61.00;;;;;;4815241;29;20274;-74
2021/01/10 12:15:34;;;;;;;47.90;25.85;;;6.30;61.00;;;;;;4829647;29;20038;-75
2021/01/10 12:18:01;;;;;;;56.25;26.60;;;6.40;61.00;;;;;;4814671;29;20046;-75
2021/01/10 12:20:27;;;;;;;45.00;24.77;;;6.30;60.90;;;;;;4815091;29;20315;-75
2021/01/10 12:22:53;;;;;;;40.67;23.97;;;6.20;61.20;;;;;;4813920;29;20103;-75
2021/01/10 12:25:20;;;;;;;44.87;23.77;;;6.10;61.30;;;;;;4813873;29;20037;-74
2021/01/10 12:27:46;;;;;;;41.97;22.57;;;6.20;61.40;;;;;;4814937;29;20034;-74
2021/01/10 12:30:12;;;;;;;43.33;22.83;;;6.20;61.00;;;;;;4813458;29;20054;-74
2021/01/10 12:32:38;;;;;;;51.87;25.37;;;6.30;61.00;;;;;;4819500;29;20030;-75
2021/01/10 12:35:07;;;;;;;44.60;23.80;;;6.30;60.80;;;;;;4833099;29;20046;-74
2021/01/10 12:37:33;;;;;;;50.00;26.02;;;6.20;61.00;;;;;;4832715;29;20104;-75
2021/01/10 12:39:59;;;;;;;47.42;24.85;;;6.20;60.60;;;;;;4828734;29;20074;-75
2021/01/10 12:42:25;;;;;;;47.13;24.65;;;6.20;60.50;;;;;;4827618;29;20031;-75
2021/01/10 12:44:51;;;;;;;41.05;22.05;;;6.20;59.70;;;;;;4821855;29;20043;-75
2021/01/10 12:47:17;;;;;;;46.55;24.60;;;6.20;59.70;;;;;;4825166;29;20073;-75
2021/01/10 12:49:44;;;;;;;47.67;23.13;;;6.20;59.80;;;;;;4818105;29;20027;-74
2021/01/10 12:52:10;;;;;;;41.85;24.65;;;6.20;60.10;;;;;;4832569;29;20034;-74
2021/01/10 12:54:36;;;;;;;49.78;24.10;;;6.30;60.10;;;;;;4833875;29;20229;-73
2021/01/10 12:57:01;;;;;;;43.72;22.70;;;6.20;60.60;;;;;;4829752;29;20328;-74
2021/01/10 12:59:27;;;;;;;40.95;21.58;;;6.10;60.00;;;;;;4844128;29;20026;-74
2021/01/10 13:01:53;;;;;;;39.95;23.08;;;6.10;60.30;;;;;;4826348;29;20038;-74
2021/01/10 13:04:19;;;;;;;36.70;21.15;;;6.10;60.40;;;;;;4826170;29;20066;-74
2021/01/10 13:06:45;;;;;;;41.28;22.02;;;6.20;60.70;;;;;;4826380;29;20088;-73
2021/01/10 13:09:11;;;;;;;39.05;21.65;;;6.20;59.80;;;;;;4817673;29;20037;-74
2021/01/10 13:11:36;;;;;;;39.35;21.92;;;6.10;60.10;;;;;;4826467;29;20062;-74
2021/01/10 13:14:02;;;;;;;38.08;21.30;;;6.10;60.40;;;;;;4807312;29;20035;-74
2021/01/10 13:16:28;;;;;;;39.88;22.25;;;6.00;60.80;;;;;;4823126;29;20355;-74
2021/01/10 13:18:54;;;;;;;41.42;22.58;;;6.00;61.00;;;;;;4818597;29;20026;-74
2021/01/10 13:21:20;;;;;;;45.08;22.23;;;6.00;61.20;;;;;;4830436;29;20058;-73
2021/01/10 13:23:47;;;;;;;46.40;23.85;;;6.00;61.10;;;;;;4809962;29;20015;-73
2021/01/10 13:26:19;;;;;;;46.15;23.40;;;6.00;61.00;;;;;;4830925;29;20230;-73
2021/01/10 13:28:46;;;;;;;38.97;21.30;;;5.80;61.00;;;;;;4815888;29;20035;-74
2021/01/10 13:31:12;;;;;;;41.28;22.58;;;5.70;61.60;;;;;;4819612;29;20051;-73
2021/01/10 13:33:38;;;;;;;42.13;23.37;;;5.80;62.00;;;;;;4819761;29;20311;-74
2021/01/10 13:36:07;;;;;;;44.00;24.83;;;5.70;62.10;;;;;;4835202;29;20341;-74
2021/01/10 13:38:33;;;;;;;46.75;23.67;;;5.80;62.30;;;;;;4833570;29;20034;-73
2021/01/10 13:40:59;;;;;;;41.08;23.00;;;5.70;62.00;;;;;;4848715;29;20126;-73
2021/01/10 13:43:26;;;;;;;52.77;28.17;;;5.70;62.30;;;;;;4836637;29;20102;-74
2021/01/10 13:45:52;;;;;;;53.35;27.88;;;5.70;62.40;;;;;;4816431;29;20030;-73
2021/01/10 13:48:19;;;;;;;40.97;22.60;;;5.70;62.30;;;;;;4829027;29;20067;-74
2021/01/10 13:50:45;;;;;;;38.90;22.02;;;5.70;62.30;;;;;;4829576;29;20319;-74
2021/01/10 13:53:11;;;;;;;41.15;22.35;;;5.70;62.20;;;;;;4814034;29;20026;-74
2021/01/10 13:55:37;;;;;;;36.55;21.38;;;5.70;62.30;;;;;;4826630;29;20026;-74
2021/01/10 13:58:03;;;;;;;39.92;21.60;;;5.80;62.50;;;;;;4810045;29;20129;-73
2021/01/10 14:00:29;;;;;;;40.40;21.35;;;5.80;62.20;;;;;;4824003;29;20076;-73
2021/01/10 14:02:55;;;;;;;36.70;21.17;;;5.80;62.20;;;;;;4837517;29;20106;-75
2021/01/10 14:05:22;;;;;;;33.90;18.77;;;5.80;62.40;;;;;;4810748;29;20034;-75
2021/01/10 14:07:48;;;;;;;34.00;19.27;;;5.80;61.50;;;;;;4810084;29;20027;-75
2021/01/10 14:10:14;;;;;;;35.05;19.48;;;5.70;61.30;;;;;;4830045;29;20070;-75
2021/01/10 14:12:41;;;;;;;33.40;19.30;;;5.70;61.10;;;;;;4816280;29;20064;-75
2021/01/10 14:15:08;;;;;;;32.28;19.00;;;5.70;61.10;;;;;;4821809;29;20347;-75
2021/01/10 14:17:34;;;;;;;;;;;5.60;60.80;;;;;;4826612;29;20230;-74
2021/01/10 14:20:03;;;;;;;38.63;19.37;;;5.60;60.80;;;;;;4830243;29;19913;-74
2021/01/10 14:22:32;;;;;;;29.40;18.02;;;5.50;60.50;;;;;;4817585;29;20026;-73
2021/01/10 14:24:59;;;;;;;33.10;18.67;;;5.40;60.50;;;;;;4821083;29;20325;-73
2021/01/10 14:27:26;;;;;;;34.55;19.40;;;5.40;60.80;;;;;;4815883;29;20545;-73
2021/01/10 14:29:53;;;;;;;39.30;17.67;;;5.40;61.10;;;;;;4822382;29;20104;-73
2021/01/10 14:32:20;;;;;;;33.38;17.50;;;5.40;60.50;;;;;;4819271;29;20045;-74
2021/01/10 14:34:45;;;;;;;29.85;17.15;;;5.30;60.50;;;;;;4841832;29;20039;-74
2021/01/10 14:37:11;;;;;;;33.00;18.55;;;5.30;60.70;;;;;;4830148;29;20039;-74
2021/01/10 14:39:38;;;;;;;33.63;18.38;;;5.30;61.40;;;;;;4837003;29;20062;-73
2021/01/10 14:42:05;;;;;;;33.70;18.98;;;5.30;60.70;;;;;;4838852;29;20283;-73
2021/01/10 14:44:32;;;;;;;32.80;18.17;;;5.30;60.80;;;;;;4837756;29;20092;-74
2021/01/10 14:46:58;;;;;;;34.08;18.17;;;5.30;61.40;;;;;;4815185;29;20073;-73
2021/01/10 14:49:24;;;;;;;30.60;17.08;;;5.30;60.30;;;;;;4838596;29;20049;-73
2021/01/10 14:51:50;;;;;;;27.80;16.40;;;5.30;60.40;;;;;;4819548;29;20265;-74
2021/01/10 14:54:16;;;;;;;32.35;18.00;;;5.30;60.60;;;;;;4836964;29;20216;-74
2021/01/10 14:56:42;;;;;;;36.77;18.50;;;5.20;60.50;;;;;;4847987;29;20045;-74
2021/01/10 14:59:08;;;;;;;33.33;17.90;;;5.20;60.80;;;;;;4825809;29;20030;-72
2021/01/10 15:01:34;;;;;;;33.35;18.00;;;5.20;60.90;;;;;;4835561;29;20039;-73
2021/01/10 15:04:03;;;;;;;33.78;18.40;;;5.20;61.20;;;;;;4841392;29;20027;-73
2021/01/10 15:06:29;;;;;;;35.30;18.63;;;5.20;61.20;;;;;;4820967;29;20054;-73
2021/01/10 15:08:56;;;;;;;37.50;19.50;;;5.30;61.90;;;;;;4826790;29;20496;-73
2021/01/10 15:11:24;;;;;;;37.15;19.83;;;5.20;61.30;;;;;;4820292;29;20035;-73
2021/01/10 15:13:51;;;;;;;33.30;19.13;;;5.20;61.40;;;;;;4817248;29;20109;-72
2021/01/10 15:16:16;;;;;;;34.67;19.83;;;5.20;61.70;;;;;;4832568;29;20039;-73
2021/01/10 15:18:44;;;;;;;40.50;19.30;;;5.10;61.70;;;;;;4821927;29;20298;-74
2021/01/10 15:21:10;;;;;;;34.00;19.15;;;5.10;61.80;;;;;;4828947;29;20023;-73
2021/01/10 15:23:36;;;;;;;33.05;19.15;;;5.10;61.90;;;;;;4814389;29;20341;-73
2021/01/10 15:26:02;;;;;;;36.78;19.95;;;5.10;62.00;;;;;;4833056;29;20030;-73
2021/01/10 15:28:28;;;;;;;38.53;19.58;;;5.10;62.20;;;;;;4847272;29;20057;-73
2021/01/10 15:30:54;;;;;;;40.80;21.30;;;5.00;62.40;;;;;;4840388;29;20030;-73
2021/01/10 15:33:20;;;;;;;38.80;21.33;;;5.00;62.40;;;;;;4816538;29;20318;-72
2021/01/10 15:35:47;;;;;;;37.28;20.02;;;5.00;62.50;;;;;;4845038;29;20061;-73
2021/01/10 15:38:13;;;;;;;;;;;4.90;62.60;;;;;;4816414;29;20031;-73
2021/01/10 15:40:40;;;;;;;39.38;21.83;;;4.90;62.70;;;;;;4846394;29;20092;-73
2021/01/10 15:43:06;;;;;;;46.47;21.00;;;4.80;62.70;;;;;;4833334;29;20038;-73
2021/01/10 15:45:32;;;;;;;38.38;21.70;;;4.70;62.90;;;;;;4827028;29;20095;-72
2021/01/10 15:47:58;;;;;;;44.25;23.20;;;4.70;63.20;;;;;;4813287;29;20059;-73
2021/01/10 15:50:24;;;;;;;38.50;21.20;;;4.60;63.40;;;;;;4812251;29;20036;-72
2021/01/10 15:52:49;;;;;;;43.90;22.20;;;4.50;63.50;;;;;;4822472;29;20053;-73
2021/01/10 15:55:15;;;;;;;45.58;22.65;;;4.50;63.60;;;;;;4828761;29;20223;-73
2021/01/10 15:57:42;;;;;;;46.17;24.48;;;4.40;63.70;;;;;;4804911;29;20076;-72
2021/01/10 16:00:09;;;;;;;48.15;24.70;;;4.40;63.90;;;;;;4809100;29;20031;-73
2021/01/10 16:02:39;;;;;;;43.17;22.75;;;4.30;64.00;;;;;;4821120;29;20031;-73
2021/01/10 16:05:08;;;;;;;40.60;22.00;;;4.20;64.10;;;;;;4819592;29;20031;-73
2021/01/10 16:07:35;;;;;;;39.97;21.98;;;4.20;64.30;;;;;;4817000;29;20039;-73
2021/01/10 16:10:01;;;;;;;52.63;26.50;;;4.10;64.30;;;;;;4826795;29;20031;-73
2021/01/10 16:12:26;;;;;;;46.80;25.83;;;4.00;64.80;;;;;;4810099;29;20222;-73
2021/01/10 16:14:52;;;;;;;51.15;26.08;;;3.90;65.10;;;;;;4806830;29;20027;-73
2021/01/10 16:17:18;;;;;;;53.78;26.88;;;3.90;65.40;;;;;;4820695;29;20105;-73
2021/01/10 16:19:44;;;;;;;55.90;25.70;;;3.80;65.60;;;;;;4811863;29;20078;-73
2021/01/10 16:22:10;;;;;;;59.10;28.42;;;3.80;65.80;;;;;;4823271;29;20035;-73
2021/01/10 16:24:35;;;;;;;55.83;28.05;;;3.70;66.10;;;;;;4806983;29;20373;-72
2021/01/10 16:27:01;;;;;;;56.35;27.48;;;3.70;66.20;;;;;;4805306;29;20092;-74
2021/01/10 16:29:27;;;;;;;51.38;27.13;;;3.70;66.40;;;;;;4811620;29;20027;-73
2021/01/10 16:31:52;;;;;;;46.92;25.52;;;3.70;66.40;;;;;;4812644;29;20022;-72
2021/01/10 16:34:18;;;;;;;58.78;29.33;;;3.60;66.40;;;;;;4828916;29;20031;-73